Time;durP1;ratioP1;P1;durP2;ratioP2;P2;SDS_P1;SDS_P2;PMS_P1;PMS_P2;Temp;Humidity;BMP_temperature;BMP_pressure;BME280_temperature;BME280_humidity;BME280_pressure;Samples;Min_cycle;Max_cycle;Signal;HPM_P1;HPM_P2
2021/10/01 00:02:15;;;;;;;0.93;0.40;;;21.60;50.60;;;25.49;33.81;101738.50;5116252;28;20052;-12
2021/10/01 00:04:41;;;;;;;0.77;0.68;;;21.60;50.60;;;25.49;33.89;101737.63;5115967;28;20054;-12
2021/10/01 00:07:08;;;;;;;0.68;0.63;;;21.60;50.60;;;25.49;33.87;101742.97;5115570;28;20055;-12
2021/10/01 00:09:34;;;;;;;0.98;0.68;;;21.60;50.60;;;25.49;33.90;101743.88;5115810;28;20073;-11
2021/10/01 00:12:00;;;;;;;0.38;0.38;;;21.60;50.60;;;25.46;33.99;101730.69;5115556;28;20048;-12
2021/10/01 00:14:27;;;;;;;1.02;0.70;;;21.60;50.50;;;25.47;33.90;101736.88;5115383;28;20138;-12
2021/10/01 00:16:55;;;;;;;0.85;0.65;;;21.60;50.60;;;25.48;33.97;101728.75;5115488;28;20052;-12
2021/10/01 00:19:23;;;;;;;0.75;0.50;;;21.60;50.60;;;25.47;34.04;101724.34;5115513;28;20074;-12
2021/10/01 00:21:49;;;;;;;0.70;0.60;;;21.60;50.60;;;25.46;33.82;101721.75;5115244;28;20131;-12
2021/10/01 00:24:15;;;;;;;0.82;0.65;;;21.60;50.60;;;25.47;34.02;101702.91;5115545;28;20044;-12
2021/10/01 00:26:41;;;;;;;0.55;0.50;;;21.60;50.60;;;25.47;33.68;101707.44;5115237;28;20134;-12
2021/10/01 00:29:08;;;;;;;1.45;0.50;;;21.50;50.60;;;25.48;33.89;101706.47;5095109;28;20058;-12
2021/10/01 00:31:35;;;;;;;1.23;0.50;;;21.50;50.70;;;25.47;33.98;101707.44;5115244;28;20069;-12
2021/10/01 00:34:03;;;;;;;0.40;0.40;;;21.60;50.70;;;25.44;33.86;101700.47;5115104;28;20098;-12
2021/10/01 00:36:29;;;;;;;0.60;0.50;;;21.50;50.60;;;25.43;33.92;101697.91;5115161;28;20043;-12
2021/10/01 00:38:58;;;;;;;0.43;0.43;;;21.60;50.70;;;25.46;34.06;101690.50;5114924;28;20134;-12
2021/10/01 00:41:28;;;;;;;0.55;0.55;;;21.50;50.70;;;25.46;33.83;101698.53;5115194;28;20036;-12
2021/10/01 00:43:54;;;;;;;0.50;0.50;;;21.50;50.70;;;25.45;33.95;101696.81;5115053;28;20055;-12
2021/10/01 00:46:20;;;;;;;0.60;0.55;;;21.50;50.60;;;25.45;34.02;101679.91;5114989;28;20040;-12
2021/10/01 00:48:46;;;;;;;0.50;0.50;;;21.50;50.70;;;25.47;34.03;101683.34;5114877;28;20052;-12
2021/10/01 00:51:12;;;;;;;0.40;0.40;;;21.50;50.70;;;25.46;33.89;101681.59;5115295;28;20084;-12
2021/10/01 00:53:38;;;;;;;0.88;0.60;;;21.50;50.70;;;25.46;33.88;101677.13;5114941;28;20092;-12
2021/10/01 00:56:04;;;;;;;0.80;0.77;;;21.50;50.60;;;25.45;33.84;101679.91;5114517;28;20083;-12
2021/10/01 00:58:30;;;;;;;0.70;0.55;;;21.50;50.60;;;25.43;33.96;101685.38;5096318;28;20043;-12
2021/10/01 01:03:22;;;;;;;1.33;0.63;;;21.50;50.60;;;25.45;33.76;101671.88;5096278;28;20043;-12
2021/10/01 01:06:28;;;;;;;0.47;0.45;;;21.50;51.10;;;25.47;33.89;101672.63;5114640;28;20124;-12
2021/10/01 01:09:11;;;;;;;0.70;0.50;;;21.50;50.60;;;25.45;33.92;101666.53;5096183;28;20157;-12
2021/10/01 01:12:14;;;;;;;0.60;0.50;;;21.60;50.60;;;25.44;33.88;101654.09;5079469;28;20135;-12
2021/10/01 01:15:07;;;;;;;0.65;0.50;;;21.60;50.60;;;25.43;33.94;101653.22;5114602;28;20097;-12
2021/10/01 01:17:46;;;;;;;0.60;0.60;;;21.60;50.60;;;25.43;33.97;101653.22;5079761;28;20051;-12
2021/10/01 01:20:41;;;;;;;0.63;0.57;;;21.50;50.50;;;25.43;33.98;101652.38;5113714;28;20040;-12
2021/10/01 01:23:37;;;;;;;0.70;0.60;;;21.50;50.50;;;25.40;33.93;101655.28;5096265;28;20047;-12
2021/10/01 01:26:46;;;;;;;0.60;0.52;;;21.50;50.60;;;25.42;33.93;101651.50;5095957;28;20044;-12
2021/10/01 01:29:58;;;;;;;0.60;0.50;;;21.50;50.60;;;25.44;33.82;101660.31;5095704;28;20047;-12
2021/10/01 01:32:26;;;;;;;0.45;0.45;;;21.50;50.50;;;25.41;33.86;101652.50;5112703;28;20476;-12
2021/10/01 01:35:00;;;;;;;1.83;0.70;;;21.50;50.50;;;25.39;33.99;101650.88;5096569;28;20441;-12
2021/10/01 01:37:40;;;;;;;0.43;0.43;;;21.50;50.50;;;25.38;33.92;101650.03;5079293;28;20109;-12
2021/10/01 01:40:09;;;;;;;0.43;0.43;;;21.50;50.50;;;25.41;33.96;101652.50;5079453;28;20055;-12
2021/10/01 01:42:38;;;;;;;0.43;0.40;;;21.50;50.50;;;25.41;33.92;101657.84;5129816;28;20506;-12
2021/10/01 01:45:05;;;;;;;0.65;0.50;;;21.50;50.50;;;25.42;33.88;101656.00;5078862;28;20048;-12
2021/10/01 01:47:32;;;;;;;0.55;0.55;;;21.60;50.50;;;25.40;33.86;101647.25;5095656;28;20053;-11
2021/10/01 01:50:01;;;;;;;0.65;0.43;;;21.50;50.50;;;25.41;33.98;101652.50;5079587;28;20089;-11
2021/10/01 01:52:29;;;;;;;0.63;0.50;;;21.50;50.60;;;25.37;33.90;101642.09;5093328;28;20082;-12
2021/10/01 01:54:56;;;;;;;1.30;0.50;;;21.50;50.60;;;25.40;33.90;101642.72;5078832;28;20047;-12
2021/10/01 01:57:23;;;;;;;0.82;0.50;;;21.50;50.50;;;25.41;34.01;101640.91;5095503;28;20051;-12
2021/10/01 01:59:50;;;;;;;0.60;0.50;;;21.50;50.60;;;25.41;34.03;101631.06;5078639;28;20633;-12
2021/10/01 02:02:19;;;;;;;0.60;0.50;;;21.50;50.60;;;25.40;33.85;101629.34;5110590;28;20048;-12
2021/10/01 02:04:47;;;;;;;0.60;0.60;;;21.50;51.10;;;25.40;33.99;101625.81;5095336;28;20040;-12
2021/10/01 02:07:16;;;;;;;0.60;0.60;;;21.50;50.60;;;25.41;34.07;101628.41;5094384;28;20046;-12
2021/10/01 02:09:43;;;;;;;0.85;0.50;;;21.50;50.60;;;25.40;33.92;101607.94;5095374;28;20592;-12
2021/10/01 02:12:09;;;;;;;0.63;0.45;;;21.50;50.60;;;25.41;33.90;101606.97;5129272;28;20058;-12
2021/10/01 02:14:42;;;;;;;0.60;0.50;;;21.50;50.60;;;25.40;33.97;101607.09;5095658;28;20051;-12
2021/10/01 02:17:11;;;;;;;0.75;0.50;;;21.50;50.70;;;25.38;34.01;101599.16;5079036;28;20047;-12
2021/10/01 02:19:42;;;;;;;0.65;0.57;;;21.40;50.60;;;25.41;34.05;101606.09;5075258;28;20143;-12
2021/10/01 02:22:10;;;;;;;0.55;0.55;;;21.50;50.60;;;25.41;33.94;101603.41;5078511;28;20189;-12
2021/10/01 02:24:39;;;;;;;0.95;0.50;;;21.50;50.60;;;25.38;33.85;101607.19;5095633;28;20487;-12
2021/10/01 02:27:39;;;;;;;0.75;0.52;;;21.50;50.60;;;25.38;33.92;101593.81;5078213;28;20398;-12
2021/10/01 02:30:24;;;;;;;0.73;0.50;;;21.50;50.50;;;25.37;33.91;101592.06;5113295;28;20092;-12
2021/10/01 02:33:04;;;;;;;0.63;0.50;;;21.50;50.50;;;25.40;33.76;101591.03;5078045;28;20040;-12
2021/10/01 02:35:30;;;;;;;0.82;0.55;;;21.50;50.50;;;25.36;33.80;101587.69;5095097;28;20407;-11
2021/10/01 02:37:56;;;;;;;0.88;0.40;;;21.50;50.50;;;25.38;33.91;101585.78;5092315;28;20138;-12
2021/10/01 02:40:22;;;;;;;0.57;0.55;;;21.50;50.50;;;25.38;33.89;101585.78;5113221;28;20044;-12
2021/10/01 02:42:48;;;;;;;0.60;0.40;;;21.50;50.50;;;25.38;33.87;101582.25;5128812;28;20036;-12
2021/10/01 02:45:15;;;;;;;0.43;0.40;;;21.50;50.50;;;25.36;33.93;101571.63;5095074;28;20085;-12
2021/10/01 02:47:41;;;;;;;0.70;0.50;;;21.50;50.50;;;25.39;33.88;101576.75;5077763;28;20066;-12
2021/10/01 02:50:17;;;;;;;0.50;0.50;;;21.50;50.50;;;25.38;33.85;101564.34;5095269;28;20044;-12
2021/10/01 02:53:07;;;;;;;1.15;0.60;;;21.50;50.60;;;25.39;33.90;101562.53;5095000;28;20043;-12
2021/10/01 02:56:07;;;;;;;0.73;0.52;;;21.50;50.60;;;25.41;33.94;101576.66;5094697;28;20138;-12
2021/10/01 02:58:41;;;;;;;1.05;0.50;;;21.50;50.60;;;25.37;33.91;101562.63;5092129;28;20100;-12
2021/10/01 03:01:10;;;;;;;0.90;0.50;;;21.50;50.60;;;25.36;33.83;101560.94;5095067;28;20436;-12
2021/10/01 03:03:45;;;;;;;0.45;0.45;;;21.40;50.80;;;25.35;33.94;101556.53;5113237;28;20051;-12
2021/10/01 03:06:12;;;;;;;0.55;0.55;;;21.30;51.40;;;25.36;33.95;101560.06;5128559;28;20082;-12
2021/10/01 03:08:39;;;;;;;0.60;0.60;;;21.30;51.00;;;25.35;34.03;101564.56;5094432;28;20051;-12
2021/10/01 03:11:13;;;;;;;0.65;0.50;;;21.20;51.20;;;25.31;33.90;101550.53;5111883;28;20142;-12
2021/10/01 03:13:46;;;;;;;0.50;0.50;;;21.20;51.20;;;25.35;34.08;101551.19;5094828;28;20040;-12
2021/10/01 03:16:12;;;;;;;1.00;0.60;;;21.20;51.20;;;25.32;33.94;101544.19;5078112;28;20472;-12
2021/10/01 03:18:39;;;;;;;0.52;0.40;;;21.30;51.10;;;25.37;34.12;101551.06;5079576;28;20051;-12
2021/10/01 03:21:07;;;;;;;0.68;0.40;;;21.30;51.00;;;25.36;34.02;101550.22;5081057;28;20058;-12
2021/10/01 03:23:38;;;;;;;0.80;0.60;;;21.30;51.10;;;25.36;33.85;101544.88;5114988;28;20039;-12
2021/10/01 03:26:05;;;;;;;0.90;0.50;;;21.30;51.00;;;25.38;33.96;101540.25;5098117;28;20058;-12
2021/10/01 03:28:31;;;;;;;1.08;0.60;;;21.30;50.90;;;25.39;34.06;101549.13;5095842;28;20399;-12
2021/10/01 03:30:57;;;;;;;0.50;0.50;;;21.30;50.90;;;25.43;34.13;101547.97;5116091;28;20047;-12
2021/10/01 03:33:28;;;;;;;0.73;0.52;;;21.30;51.00;;;25.41;33.93;101529.34;5097845;28;20050;-12
2021/10/01 03:35:55;;;;;;;0.43;0.40;;;21.40;50.90;;;25.45;33.94;101540.69;5132081;28;20044;-12
2021/10/01 03:38:23;;;;;;;0.75;0.57;;;21.40;50.90;;;25.46;33.89;101534.34;5097749;28;20043;-12
2021/10/01 03:40:50;;;;;;;0.43;0.40;;;21.40;50.90;;;25.46;33.89;101532.53;5093562;28;20047;-12
2021/10/01 03:43:17;;;;;;;0.60;0.60;;;21.40;50.80;;;25.48;33.89;101527.94;5097998;28;20476;-12
2021/10/01 03:45:44;;;;;;;0.50;0.50;;;21.40;50.70;;;25.48;33.84;101533.28;5097975;28;20047;-12
2021/10/01 03:48:11;;;;;;;0.60;0.60;;;21.40;50.60;;;25.51;33.91;101527.72;5115785;28;20043;-12
2021/10/01 03:50:54;;;;;;;1.08;0.60;;;21.50;50.70;;;25.54;33.71;101525.78;5097993;28;20445;-12
2021/10/01 03:53:20;;;;;;;0.85;0.75;;;21.50;50.60;;;25.56;33.78;101532.75;5131661;28;20051;-12
2021/10/01 03:55:45;;;;;;;1.27;0.63;;;21.50;50.50;;;25.56;33.74;101535.44;5115715;28;20047;-11
2021/10/01 03:58:12;;;;;;;0.75;0.68;;;21.50;50.50;;;25.57;33.58;101529.09;5131436;28;20047;-12
2021/10/01 04:00:39;;;;;;;0.55;0.55;;;21.50;50.50;;;25.57;33.74;101536.28;5097413;28;20058;-12
2021/10/01 04:03:04;;;;;;;0.75;0.52;;;21.50;50.70;;;25.58;33.63;101529.97;5131760;28;20360;-12
2021/10/01 04:05:41;;;;;;;0.63;0.50;;;21.50;50.60;;;25.59;33.61;101531.66;5098016;28;20043;-11
2021/10/01 04:08:13;;;;;;;0.43;0.43;;;21.40;50.60;;;25.57;33.71;101521.06;5097274;28;20048;-12
2021/10/01 04:10:42;;;;;;;0.45;0.45;;;21.50;50.60;;;25.59;33.72;101528.97;5097332;28;20044;-12
2021/10/01 04:13:08;;;;;;;0.52;0.50;;;21.60;50.30;;;25.59;33.63;101527.16;5097830;28;20051;-12
2021/10/01 04:15:40;;;;;;;0.80;0.55;;;21.60;50.40;;;25.60;33.56;101517.31;5096025;28;20509;-12
2021/10/01 04:18:07;;;;;;;0.50;0.47;;;21.50;50.30;;;25.59;33.65;101518.28;5115426;28;20040;-12
2021/10/01 04:20:35;;;;;;;0.38;0.38;;;21.50;50.40;;;25.60;33.58;101517.31;5080360;28;20130;-12
2021/10/01 04:23:02;;;;;;;0.50;0.50;;;21.50;50.50;;;25.61;33.65;101524.38;5097000;28;20047;-12
2021/10/01 04:25:48;;;;;;;0.40;0.30;;;21.50;50.40;;;25.59;33.54;101520.94;5114572;28;20522;-12
2021/10/01 04:28:17;;;;;;;0.40;0.40;;;21.50;50.40;;;25.61;33.69;101510.97;5096706;28;20075;-12
2021/10/01 04:30:46;;;;;;;0.70;0.70;;;21.60;50.30;;;25.59;33.49;101504.88;5114555;28;20498;-12
2021/10/01 04:33:23;;;;;;;0.68;0.60;;;21.50;50.40;;;25.59;33.36;101513.75;5096863;28;20047;-12
2021/10/01 04:35:51;;;;;;;0.63;0.47;;;21.50;50.40;;;25.60;33.49;101514.66;5131086;28;20142;-12
2021/10/01 04:38:19;;;;;;;0.60;0.60;;;21.50;50.50;;;25.54;33.64;101499.84;5130430;28;20050;-11
2021/10/01 04:40:47;;;;;;;0.40;0.40;;;21.40;50.60;;;25.57;33.58;101510.34;5096701;28;20139;-11
2021/10/01 04:43:13;;;;;;;0.50;0.40;;;21.50;50.50;;;25.59;33.62;101510.25;5130826;28;20048;-11
2021/10/01 04:46:00;;;;;;;0.57;0.47;;;21.60;50.80;;;25.58;33.52;101514.75;5114876;28;20040;-11
2021/10/01 04:48:27;;;;;;;0.88;0.50;;;21.60;50.20;;;25.56;33.58;101515.81;5097121;28;20173;-12
2021/10/01 04:50:53;;;;;;;0.60;0.50;;;21.60;50.20;;;25.56;33.64;101510.47;5097053;28;20039;-11
2021/10/01 04:53:19;;;;;;;1.08;0.50;;;21.60;50.10;;;25.56;33.63;101516.69;5096899;28;20380;-11
2021/10/01 04:55:46;;;;;;;0.52;0.50;;;21.60;50.10;;;25.52;33.58;101513.34;5096519;28;20491;-11
2021/10/01 04:58:13;;;;;;;0.52;0.52;;;21.60;50.10;;;25.54;33.55;101513.25;5096241;28;20399;-11
2021/10/01 05:01:04;;;;;;;0.50;0.40;;;21.60;50.10;;;25.51;33.51;101514.34;5115214;28;20055;-11
2021/10/01 05:03:48;;;;;;;0.68;0.50;;;21.60;50.20;;;25.52;33.65;101512.50;5114832;28;20050;-11
2021/10/01 05:06:33;;;;;;;0.63;0.52;;;21.60;50.10;;;25.50;33.47;101520.63;5115041;28;20120;-11
2021/10/01 05:09:17;;;;;;;0.50;0.50;;;21.50;50.80;;;25.50;33.51;101525.16;5114639;28;20051;-12
2021/10/01 05:12:01;;;;;;;0.80;0.60;;;21.50;50.30;;;25.50;33.60;101519.78;5113255;28;20155;-11
2021/10/01 05:14:48;;;;;;;0.50;0.47;;;21.50;50.20;;;25.49;33.56;101526.09;5115215;28;20522;-11
2021/10/01 05:17:37;;;;;;;0.40;0.40;;;21.50;50.40;;;25.49;33.48;101524.31;5113056;28;20115;-12
2021/10/01 05:20:42;;;;;;;0.50;0.43;;;21.40;50.40;;;25.45;33.69;101517.44;5102434;28;20031;-13
2021/10/01 05:23:32;;;;;;;0.88;0.60;;;21.50;50.50;;;25.49;33.60;101535.00;5114927;28;20040;-11
2021/10/01 05:25:59;;;;;;;0.55;0.50;;;21.40;50.40;;;25.44;33.73;101529.13;5095937;28;20084;-11
2021/10/01 05:28:24;;;;;;;0.50;0.50;;;21.50;50.40;;;25.47;33.60;101533.38;5093463;28;20491;-11
2021/10/01 05:30:50;;;;;;;1.75;0.90;;;21.40;50.50;;;25.46;33.57;101529.88;5114332;28;20097;-11
2021/10/01 05:33:17;;;;;;;0.55;0.40;;;21.40;50.60;;;25.45;33.65;101528.16;5114261;28;20079;-11
2021/10/01 05:35:45;;;;;;;0.80;0.50;;;21.40;50.60;;;25.43;33.72;101524.72;5114541;28;20043;-11
2021/10/01 05:38:12;;;;;;;0.93;0.70;;;21.40;50.70;;;25.43;33.63;101526.56;5114423;28;20101;-11
2021/10/01 05:40:39;;;;;;;0.77;0.50;;;21.30;50.70;;;25.44;33.55;101525.56;5078764;28;20062;-11
2021/10/01 05:43:05;;;;;;;0.70;0.60;;;21.30;50.80;;;25.44;33.61;101520.22;5094980;28;20132;-11
2021/10/01 05:45:33;;;;;;;0.77;0.77;;;21.30;50.80;;;25.44;33.61;101522.91;5095910;28;20055;-11
2021/10/01 05:48:17;;;;;;;0.40;0.40;;;21.30;50.80;;;25.40;33.74;101522.25;5114256;28;20100;-11
2021/10/01 05:51:08;;;;;;;0.95;0.70;;;21.30;50.80;;;25.43;33.78;101526.56;5114016;28;20247;-11
2021/10/01 05:57:11;;;;;;;0.55;0.50;;;21.30;50.80;;;25.44;33.65;101525.56;5113700;28;20039;-11
2021/10/01 05:59:53;;;;;;;0.60;0.60;;;21.40;50.70;;;25.45;33.69;101520.13;5095432;28;20081;-12
2021/10/01 06:02:21;;;;;;;0.68;0.50;;;21.40;50.60;;;25.47;33.89;101528.03;5095311;28;20536;-12
2021/10/01 06:04:52;;;;;;;0.45;0.45;;;21.50;50.50;;;25.47;33.74;101515.50;5095337;28;20078;-11
2021/10/01 06:07:20;;;;;;;0.60;0.60;;;21.50;50.50;;;25.46;33.67;101521.84;5095253;28;20054;-12
2021/10/01 06:09:45;;;;;;;0.40;0.40;;;21.40;50.50;;;25.48;33.73;101524.41;5113957;28;20051;-11
2021/10/01 06:12:14;;;;;;;1.00;0.60;;;21.40;50.60;;;25.49;33.45;101516.28;5113677;28;20071;-12
2021/10/01 06:14:42;;;;;;;1.15;0.60;;;21.40;50.60;;;25.49;33.69;101513.59;5113601;28;20452;-11
2021/10/01 06:17:12;;;;;;;0.40;0.40;;;21.40;50.40;;;25.48;33.71;101517.22;5113552;28;20043;-12
2021/10/01 06:19:41;;;;;;;1.20;0.43;;;21.50;50.40;;;25.51;33.70;101519.69;5095342;28;20142;-11
2021/10/01 06:22:11;;;;;;;1.33;0.70;;;21.60;50.20;;;25.56;33.64;101530.06;5113378;28;20047;-11
2021/10/01 06:24:38;;;;;;;0.98;0.50;;;21.50;50.20;;;25.54;33.57;101517.75;5095179;28;20441;-12
2021/10/01 06:27:04;;;;;;;0.75;0.60;;;21.50;50.20;;;25.56;33.61;101514.00;5113432;28;20079;-11
2021/10/01 06:29:30;;;;;;;0.47;0.40;;;21.50;50.30;;;25.56;33.50;101513.13;5113372;28;20043;-12
2021/10/01 06:31:56;;;;;;;1.75;0.50;;;21.50;50.30;;;25.56;33.64;101516.69;5113377;28;20051;-11
2021/10/01 06:34:22;;;;;;;0.57;0.40;;;21.50;50.20;;;25.59;33.50;101518.28;5113205;28;20063;-11
2021/10/01 06:36:48;;;;;;;0.40;0.40;;;21.50;50.20;;;25.62;33.60;101526.94;5113101;28;20052;-12
2021/10/01 06:39:14;;;;;;;1.10;0.65;;;21.60;50.20;;;25.62;33.47;101518.06;5092684;28;20069;-11
2021/10/01 06:41:41;;;;;;;1.40;0.70;;;21.60;50.20;;;25.63;33.35;101512.59;5113466;28;20056;-11
2021/10/01 06:44:08;;;;;;;1.23;0.70;;;21.60;50.10;;;25.62;33.58;101516.22;5090801;28;20606;-11
2021/10/01 06:46:44;;;;;;;0.60;0.60;;;21.60;50.10;;;25.66;33.42;101522.22;5113227;28;20046;-11
2021/10/01 08:20:48;;;;;;;0.60;0.60;;;21.90;49.20;;;25.70;33.08;101508.50;5115154;28;20066;-12
2021/10/01 08:23:14;;;;;;;0.73;0.50;;;21.90;49.20;;;25.72;33.13;101508.38;5114228;28;20047;-11
2021/10/01 08:25:42;;;;;;;0.80;0.55;;;21.90;49.30;;;25.69;33.21;101497.91;5115197;28;20043;-11
2021/10/01 08:28:09;;;;;;;1.10;0.63;;;21.90;49.20;;;25.70;33.24;101500.47;5115022;28;20503;-12
2021/10/01 08:30:57;;;;;;;0.60;0.50;;;21.90;49.20;;;25.74;33.08;101502.94;5114829;28;20138;-12
2021/10/01 08:33:22;;;;;;;1.42;0.70;;;21.90;49.20;;;25.75;33.11;101501.97;5115194;28;20047;-11
2021/10/01 08:35:48;;;;;;;0.68;0.60;;;21.90;49.20;;;25.73;33.04;101495.84;5114818;28;20055;-12
2021/10/01 08:38:14;;;;;;;1.17;0.70;;;21.90;49.70;;;25.76;33.03;101490.28;5114793;28;20063;-12
2021/10/01 08:40:40;;;;;;;0.80;0.60;;;21.90;49.10;;;25.74;33.13;101495.75;5115017;28;20130;-11
2021/10/01 08:43:07;;;;;;;0.98;0.68;;;21.90;49.10;;;25.77;33.08;101500.88;5114622;28;20047;-11
2021/10/01 08:45:32;;;;;;;1.50;0.70;;;22.00;49.10;;;25.79;33.04;101490.06;5096673;28;20044;-12
2021/10/01 08:48:02;;;;;;;0.50;0.50;;;21.90;49.00;;;25.80;32.99;101491.78;5096408;28;20097;-12
2021/10/01 08:50:29;;;;;;;0.50;0.50;;;21.90;49.20;;;25.79;33.10;101490.91;5113480;28;20535;-12
2021/10/01 08:52:59;;;;;;;0.60;0.60;;;21.90;49.10;;;25.78;32.99;101485.69;5114956;28;20043;-11
2021/10/01 08:55:26;;;;;;;1.75;0.47;;;22.00;49.00;;;25.80;33.11;101486.41;5114900;28;20196;-11
2021/10/01 08:57:53;;;;;;;0.50;0.50;;;22.00;48.90;;;25.80;33.05;101478.38;5114063;28;20036;-11
2021/10/01 09:00:21;;;;;;;0.75;0.60;;;22.00;49.00;;;25.81;32.96;101464.88;5114818;28;20048;-12
2021/10/01 09:02:47;;;;;;;1.00;0.80;;;22.00;48.90;;;25.84;32.91;101472.69;5114829;28;20096;-12
2021/10/01 09:05:14;;;;;;;0.70;0.57;;;22.00;48.90;;;25.85;33.04;101468.19;5096582;28;20048;-11
2021/10/01 09:07:40;;;;;;;0.88;0.60;;;22.00;49.00;;;25.85;33.04;101465.50;5114673;28;20043;-12
2021/10/01 09:10:12;;;;;;;0.57;0.50;;;22.00;48.90;;;25.84;33.06;101463.78;5114949;28;20036;-11
2021/10/01 09:12:39;;;;;;;0.88;0.65;;;22.00;48.90;;;25.87;32.74;101466.25;5114860;28;20040;-11
2021/10/01 09:15:08;;;;;;;0.90;0.60;;;22.00;48.80;;;25.86;33.00;101457.34;5114909;28;20052;-11
2021/10/01 09:17:35;;;;;;;0.93;0.60;;;22.00;48.80;;;25.89;32.89;101450.91;5094428;28;20139;-11
2021/10/01 09:20:04;;;;;;;1.10;0.60;;;22.00;48.90;;;25.87;32.96;101464.41;5114776;28;20048;-11
2021/10/01 09:22:37;;;;;;;0.77;0.60;;;22.00;48.90;;;25.87;32.97;101447.50;5114375;28;20509;-11
2021/10/01 09:25:19;;;;;;;0.70;0.60;;;22.00;48.80;;;25.91;32.92;101450.78;5114792;28;20050;-11
2021/10/01 09:28:00;;;;;;;0.57;0.50;;;22.10;48.80;;;25.88;32.85;101452.75;5113595;28;20109;-12
2021/10/01 09:30:27;;;;;;;1.00;0.60;;;22.10;48.80;;;25.91;32.83;101446.31;5114359;28;20044;-11
2021/10/01 09:33:11;;;;;;;0.65;0.50;;;22.00;48.80;;;25.92;32.84;101441.81;5114180;28;20505;-11
2021/10/01 09:35:37;;;;;;;0.55;0.50;;;22.10;48.90;;;25.93;32.88;101438.13;5114598;28;20081;-11
2021/10/01 09:38:15;;;;;;;0.50;0.50;;;22.10;48.80;;;25.92;32.90;101425.72;5114209;28;20393;-12
2021/10/01 09:40:44;;;;;;;0.73;0.57;;;22.10;48.80;;;25.93;32.77;101430.97;5114150;28;20071;-11
2021/10/01 09:43:30;;;;;;;0.95;0.70;;;22.10;49.30;;;25.94;32.89;101426.47;5114384;28;20524;-11
2021/10/01 09:46:09;;;;;;;0.55;0.55;;;22.10;48.70;;;25.92;32.89;101423.88;5114272;28;20052;-11
2021/10/01 09:48:37;;;;;;;1.00;0.70;;;22.10;48.70;;;25.92;32.91;101425.72;5114184;28;20112;-12
2021/10/01 09:51:21;;;;;;;0.63;0.50;;;22.10;48.60;;;25.94;32.85;101421.94;5114029;28;20130;-11
2021/10/01 09:53:50;;;;;;;1.25;0.60;;;22.10;49.10;;;25.96;32.80;101421.88;5114608;28;20047;-11
2021/10/01 09:56:29;;;;;;;0.55;0.50;;;22.10;48.70;;;25.96;32.81;101424.53;5113835;28;20055;-11
2021/10/01 09:59:11;;;;;;;0.88;0.70;;;22.10;48.80;;;25.95;32.77;101421.03;5113856;28;20407;-11
2021/10/01 10:02:13;;;;;;;0.80;0.80;;;22.00;48.90;;;26.00;32.82;101424.22;5113838;28;20048;-11
2021/10/01 10:04:44;;;;;;;1.17;0.68;;;22.10;48.80;;;25.97;32.90;101413.72;5113652;28;20142;-11
2021/10/01 10:07:28;;;;;;;0.60;0.50;;;22.10;48.60;;;25.99;32.68;101409.09;5113663;28;20044;-12
2021/10/01 10:09:56;;;;;;;1.60;0.70;;;22.10;48.60;;;26.00;32.56;101407.28;5113675;28;20399;-12
2021/10/01 10:12:37;;;;;;;0.75;0.60;;;22.20;48.60;;;25.96;32.79;101398.63;5113613;28;20054;-12
2021/10/01 10:15:10;;;;;;;2.88;0.70;;;22.20;48.60;;;25.97;32.80;101394.97;5112302;28;20108;-12
2021/10/01 10:17:49;;;;;;;0.50;0.50;;;22.20;48.50;;;25.97;32.78;101388.75;5113486;28;20044;-12
2021/10/01 10:20:17;;;;;;;0.82;0.73;;;22.20;48.50;;;26.00;32.73;101394.72;5113231;28;20063;-12
2021/10/01 10:22:42;;;;;;;1.45;0.68;;;22.20;48.40;;;26.01;32.65;101392.91;5113691;28;20043;-12
2021/10/01 10:25:09;;;;;;;0.65;0.43;;;22.20;48.40;;;25.98;32.57;101390.47;5095267;28;20498;-12
2021/10/01 10:27:35;;;;;;;0.73;0.63;;;22.20;48.50;;;26.03;32.74;101393.66;5112544;28;20047;-12
2021/10/01 10:30:05;;;;;;;0.40;0.40;;;22.20;48.50;;;26.04;32.54;101395.34;5113162;28;20044;-12
2021/10/01 10:32:32;;;;;;;1.65;0.70;;;22.20;48.50;;;26.03;32.59;101388.31;5095399;28;20047;-12
2021/10/01 10:35:05;;;;;;;0.60;0.60;;;22.20;48.50;;;26.02;32.75;101384.75;5095020;28;20126;-12
2021/10/01 10:37:47;;;;;;;0.80;0.47;;;22.10;48.50;;;26.01;32.67;101385.75;5113318;28;20071;-12
2021/10/01 10:40:18;;;;;;;0.80;0.68;;;22.20;48.50;;;26.02;32.67;101383.91;5113305;28;20055;-11
2021/10/01 10:42:51;;;;;;;;;;;22.20;48.40;;;26.17;32.38;101380.06;5113673;28;20074;-12
2021/10/01 10:45:23;;;;;;;0.77;0.68;;;22.20;48.40;;;26.08;32.44;101380.75;5113144;28;19923;-12
2021/10/01 10:48:02;;;;;;;0.60;0.60;;;22.20;48.40;;;26.06;32.52;101375.53;5113040;28;20194;-12
2021/10/01 10:50:44;;;;;;;0.50;0.50;;;22.20;48.40;;;26.01;32.58;101377.69;5113490;28;20043;-12
2021/10/01 10:53:24;;;;;;;1.50;0.85;;;22.20;48.90;;;26.02;32.75;101378.53;5113623;28;20044;-12
2021/10/01 10:56:07;;;;;;;1.05;0.60;;;22.30;48.40;;;26.03;32.62;101372.22;5113112;28;20051;-12
2021/10/01 10:58:39;;;;;;;0.65;0.57;;;22.20;48.40;;;26.02;32.67;101371.34;5113213;28;20044;-12
2021/10/01 11:01:13;;;;;;;1.65;0.68;;;22.30;48.30;;;26.04;32.74;101369.44;5112911;28;20130;-12
2021/10/01 11:03:39;;;;;;;0.60;0.60;;;22.30;48.30;;;26.07;32.68;101371.00;5112995;28;20068;-12
2021/10/01 11:06:11;;;;;;;0.60;0.50;;;22.20;48.30;;;26.06;32.66;101372.84;5112843;28;20039;-12
2021/10/01 11:08:49;;;;;;;1.52;0.60;;;22.30;48.30;;;26.06;32.62;101351.41;5113088;28;20402;-12
2021/10/01 11:11:32;;;;;;;1.55;0.60;;;22.30;48.20;;;26.09;32.59;101361.03;5113327;28;20084;-12
2021/10/01 11:14:20;;;;;;;0.88;0.63;;;22.30;48.30;;;26.08;32.72;101353.97;5112924;28;20044;-12
2021/10/01 11:17:12;;;;;;;0.63;0.47;;;22.30;48.30;;;26.09;32.55;101344.09;5112700;28;20126;-12
2021/10/01 11:19:46;;;;;;;0.70;0.65;;;22.30;48.20;;;26.11;32.51;101342.16;5106181;28;20052;-12
2021/10/01 11:22:39;;;;;;;1.15;0.70;;;22.30;48.20;;;26.13;32.62;101346.44;5113148;28;20625;-12
2021/10/01 11:25:12;;;;;;;0.82;0.50;;;22.20;48.30;;;26.13;32.49;101340.19;5112641;28;20047;-12
2021/10/01 11:27:49;;;;;;;0.57;0.57;;;22.30;48.30;;;26.07;32.52;101328.97;5112687;28;20449;-12
2021/10/01 11:30:15;;;;;;;0.93;0.68;;;22.30;48.20;;;26.12;32.47;101327.78;5113087;28;20051;-13
2021/10/01 11:32:41;;;;;;;0.55;0.55;;;22.30;48.30;;;26.11;32.67;101334.09;5113182;28;20039;-12
2021/10/01 11:35:07;;;;;;;0.50;0.50;;;22.30;48.30;;;26.12;32.54;101325.09;5112665;28;20101;-12
2021/10/01 11:37:48;;;;;;;0.88;0.70;;;22.30;48.30;;;26.11;32.49;101321.56;5112462;28;20054;-12
2021/10/01 11:40:30;;;;;;;0.50;0.50;;;22.30;48.30;;;26.12;32.56;101322.44;5115772;28;20159;-12
2021/10/01 11:43:01;;;;;;;0.95;0.60;;;22.20;48.30;;;26.13;32.46;101325.00;5116098;28;20040;-12
2021/10/01 11:45:29;;;;;;;2.15;0.80;;;22.30;48.20;;;26.14;32.43;101315.13;5115904;28;20044;-12
2021/10/01 11:47:58;;;;;;;0.80;0.70;;;22.30;48.20;;;26.16;32.40;101318.53;5116409;28;20079;-12
2021/10/01 11:50:50;;;;;;;0.68;0.60;;;22.30;48.20;;;26.17;32.64;101314.88;5116224;28;20047;-12
2021/10/01 11:53:26;;;;;;;0.68;0.68;;;22.30;48.20;;;26.16;32.61;101318.53;5116257;28;20043;-12
2021/10/01 11:56:02;;;;;;;0.70;0.70;;;22.30;48.20;;;26.13;32.39;101318.75;5116303;28;20048;-12
2021/10/01 11:58:31;;;;;;;1.40;0.60;;;22.30;48.20;;;26.15;32.47;101309.63;5115944;28;20043;-12
2021/10/01 12:01:15;;;;;;;0.95;0.55;;;22.30;48.30;;;26.16;32.47;101314.03;5115789;28;20127;-12
2021/10/01 12:03:56;;;;;;;0.60;0.50;;;22.30;48.20;;;26.14;32.56;101315.97;5115846;28;20381;-12
2021/10/01 12:06:35;;;;;;;1.45;0.65;;;22.20;48.20;;;26.16;32.47;101305.13;5115657;28;20471;-12
2021/10/01 12:09:09;;;;;;;0.60;0.60;;;22.30;48.30;;;26.17;32.45;101312.19;5115873;28;20044;-12
2021/10/01 12:11:39;;;;;;;0.77;0.77;;;22.30;48.30;;;26.15;32.51;101306.13;5115911;28;20051;-12
2021/10/01 12:14:20;;;;;;;0.57;0.57;;;22.30;48.30;;;26.14;32.54;101307.06;5115488;28;20047;-12